Time;durP1;ratioP1;P1;durP2;ratioP2;P2;SDS_P1;SDS_P2;PMS_P1;PMS_P2;Temp;Humidity;BMP_temperature;BMP_pressure;BME280_temperature;BME280_humidity;BME280_pressure;Samples;Min_cycle;Max_cycle;Signal;HPM_P1;HPM_P2
2022/06/08 00:01:54;;;;;;;2.22;1.55;;;13.90;99.90;;;;;;4205308;28;20071;-73
2022/06/08 00:03:59;;;;;;;1.77;1.20;;;13.90;99.90;;;;;;4208017;28;20075;-73
2022/06/08 00:06:01;;;;;;;1.73;1.23;;;13.90;99.90;;;;;;4207777;28;20057;-73
2022/06/08 00:08:03;;;;;;;1.88;1.40;;;13.90;99.90;;;;;;4203299;28;20653;-72
2022/06/08 00:10:06;;;;;;;1.23;1.15;;;13.90;99.90;;;;;;4209053;28;20830;-72
2022/06/08 00:12:08;;;;;;;1.33;1.23;;;13.90;99.90;;;;;;4201283;28;20069;-72
2022/06/08 00:14:11;;;;;;;1.27;1.23;;;13.90;99.90;;;;;;4206280;28;20056;-72
2022/06/08 00:16:14;;;;;;;1.10;1.00;;;13.90;99.90;;;;;;4203650;28;20172;-73
2022/06/08 00:18:16;;;;;;;1.10;1.05;;;13.90;99.90;;;;;;4199826;28;20891;-72
2022/06/08 00:20:18;;;;;;;1.10;1.05;;;13.90;99.90;;;;;;4205963;28;20126;-72
2022/06/08 00:22:20;;;;;;;1.35;1.20;;;13.90;99.90;;;;;;4208802;28;20063;-72
2022/06/08 00:24:22;;;;;;;1.20;1.10;;;13.90;99.90;;;;;;4201545;28;20688;-72
2022/06/08 00:26:27;;;;;;;1.75;1.45;;;13.90;99.90;;;;;;4191030;28;20188;-72
2022/06/08 00:28:28;;;;;;;1.55;1.20;;;13.80;99.90;;;;;;4201634;28;20175;-72
2022/06/08 00:30:30;;;;;;;1.13;1.13;;;13.90;99.90;;;;;;4201871;28;20061;-72
2022/06/08 00:32:32;;;;;;;1.73;1.23;;;13.80;99.90;;;;;;4203856;28;20138;-71
2022/06/08 00:34:35;;;;;;;2.55;1.30;;;13.80;99.90;;;;;;4201569;28;20794;-70
2022/06/08 00:36:37;;;;;;;1.30;1.20;;;13.80;99.90;;;;;;4200948;28;20068;-70
2022/06/08 00:38:38;;;;;;;1.55;1.10;;;13.80;99.90;;;;;;4200491;28;20676;-71
2022/06/08 00:41:02;;;;;;;3.17;1.30;;;13.80;99.90;;;;;;4208932;28;20184;-70
2022/06/08 00:43:04;;;;;;;1.73;0.98;;;13.90;99.90;;;;;;4204094;28;20792;-70
2022/06/08 00:45:15;;;;;;;0.90;0.90;;;13.90;99.90;;;;;;4207580;28;20059;-70
2022/06/08 00:47:26;;;;;;;1.50;1.40;;;13.90;99.90;;;;;;4207480;28;20052;-70
2022/06/08 00:49:37;;;;;;;2.03;1.70;;;13.90;99.90;;;;;;4203826;28;20218;-70
2022/06/08 00:51:39;;;;;;;1.65;1.40;;;13.90;99.90;;;;;;4202643;28;20103;-70
2022/06/08 00:53:54;;;;;;;2.67;1.27;;;13.90;99.90;;;;;;4208719;28;20134;-70
2022/06/08 00:56:01;;;;;;;1.88;1.35;;;13.90;99.90;;;;;;4216454;28;20057;-70
2022/06/08 00:58:10;;;;;;;2.83;1.25;;;13.90;99.90;;;;;;4203205;28;20172;-70
2022/06/08 01:00:13;;;;;;;1.13;1.13;;;13.90;99.90;;;;;;4199294;28;20947;-70
2022/06/08 01:02:16;;;;;;;2.22;1.33;;;13.80;99.90;;;;;;4204882;28;20780;-70
2022/06/08 01:04:20;;;;;;;3.60;1.23;;;13.80;99.90;;;;;;4199934;28;20082;-70
2022/06/08 01:06:24;;;;;;;1.58;1.20;;;13.90;99.90;;;;;;4203540;28;20056;-70
2022/06/08 01:08:39;;;;;;;1.85;1.30;;;13.80;99.90;;;;;;4205623;28;20829;-70
2022/06/08 01:10:46;;;;;;;1.58;1.17;;;13.90;99.90;;;;;;4198720;28;20810;-70
2022/06/08 01:12:49;;;;;;;1.60;1.20;;;13.90;99.90;;;;;;4191395;28;20063;-70
2022/06/08 01:14:50;;;;;;;1.38;1.27;;;13.80;99.90;;;;;;4200932;28;20063;-70
2022/06/08 01:17:07;;;;;;;1.30;1.20;;;13.80;99.90;;;;;;4199025;28;20076;-70
2022/06/08 01:19:10;;;;;;;3.17;1.80;;;13.90;99.90;;;;;;4204748;28;20087;-70
2022/06/08 01:21:21;;;;;;;2.47;1.27;;;13.80;99.90;;;;;;4206010;28;20776;-70
2022/06/08 01:23:23;;;;;;;1.33;1.23;;;13.80;99.90;;;;;;4205551;28;20059;-70
2022/06/08 01:25:40;;;;;;;2.58;1.58;;;13.70;99.90;;;;;;4204859;28;20056;-70
2022/06/08 01:27:54;;;;;;;1.27;1.15;;;13.70;99.90;;;;;;4202032;28;20057;-70
2022/06/08 01:30:07;;;;;;;3.03;1.63;;;13.70;99.90;;;;;;4197845;28;20064;-70
2022/06/08 01:32:56;;;;;;;1.45;1.15;;;13.70;99.90;;;;;;4206279;28;20060;-70
2022/06/08 01:35:52;;;;;;;3.63;1.80;;;13.60;99.90;;;;;;4119894;28;20047;-70
2022/06/08 01:37:56;;;;;;;1.83;1.73;;;13.60;99.90;;;;;;4099077;28;20047;-70
2022/06/08 01:40:10;;;;;;;1.35;1.25;;;13.60;99.90;;;;;;4119776;28;20062;-70
2022/06/08 01:42:30;;;;;;;1.40;1.30;;;13.60;99.90;;;;;;4147960;28;20917;-70
2022/06/08 01:44:40;;;;;;;1.70;1.33;;;13.50;99.90;;;;;;4204906;28;20947;-70
2022/06/08 01:47:11;;;;;;;2.00;1.80;;;13.50;99.90;;;;;;4209995;28;20057;-70
2022/06/08 01:49:22;;;;;;;1.48;1.35;;;13.50;99.90;;;;;;4203820;28;20059;-70
2022/06/08 01:51:47;;;;;;;1.17;1.17;;;13.50;99.90;;;;;;4206340;28;20155;-70
2022/06/08 01:54:10;;;;;;;2.65;1.20;;;13.50;99.90;;;;;;4213461;28;20079;-70
2022/06/08 01:56:38;;;;;;;2.20;2.00;;;13.50;99.90;;;;;;4205594;28;20104;-70
2022/06/08 01:58:39;;;;;;;1.67;1.58;;;13.50;99.90;;;;;;4204007;28;20164;-70
2022/06/08 02:00:51;;;;;;;6.53;1.50;;;13.50;99.90;;;;;;4207159;28;20061;-70
2022/06/08 02:03:12;;;;;;;2.28;1.50;;;13.50;99.90;;;;;;4201749;28;20111;-70
2022/06/08 02:05:26;;;;;;;4.05;1.50;;;13.50;99.90;;;;;;4202379;28;20126;-70
2022/06/08 02:07:48;;;;;;;2.15;1.40;;;13.50;99.90;;;;;;4207197;28;20091;-71
2022/06/08 02:10:02;;;;;;;2.88;1.95;;;13.50;99.90;;;;;;4199133;28;20160;-69
2022/06/08 02:12:06;;;;;;;1.60;1.50;;;13.50;99.90;;;;;;4203720;28;20085;-71
2022/06/08 02:14:15;;;;;;;1.50;1.38;;;13.40;99.90;;;;;;4207156;28;20056;-69
2022/06/08 02:16:20;;;;;;;1.33;1.23;;;13.40;99.90;;;;;;4203724;28;20053;-71
2022/06/08 02:18:28;;;;;;;1.60;1.50;;;13.40;99.90;;;;;;4201169;28;20063;-70
2022/06/08 02:20:54;;;;;;;1.48;1.38;;;13.40;99.90;;;;;;4206156;28;20067;-70
2022/06/08 02:23:05;;;;;;;1.65;1.30;;;13.30;99.90;;;;;;4203973;28;20083;-70
2022/06/08 02:25:23;;;;;;;1.30;1.20;;;13.30;99.90;;;;;;4203425;28;20061;-70
2022/06/08 02:27:30;;;;;;;2.13;1.52;;;13.30;99.90;;;;;;4202151;28;20061;-69
2022/06/08 02:29:47;;;;;;;1.13;1.02;;;13.30;99.90;;;;;;4203499;28;20064;-70
2022/06/08 02:31:57;;;;;;;1.50;1.40;;;13.30;99.90;;;;;;4192538;28;20061;-70
2022/06/08 02:36:30;;;;;;;2.40;1.77;;;13.20;99.90;;;;;;4203436;28;20056;-70
2022/06/08 02:38:39;;;;;;;1.42;1.33;;;13.10;99.90;;;;;;4201320;28;20784;-70
2022/06/08 02:40:50;;;;;;;1.20;1.10;;;13.20;99.90;;;;;;4204875;28;20153;-70
2022/06/08 02:42:58;;;;;;;7.57;1.50;;;13.10;99.90;;;;;;4198583;28;20176;-70
2022/06/08 02:45:17;;;;;;;2.50;1.30;;;13.10;99.90;;;;;;4200751;28;20072;-71
2022/06/08 02:47:31;;;;;;;4.20;2.28;;;13.10;99.90;;;;;;4214979;28;20110;-70
2022/06/08 02:49:35;;;;;;;4.25;1.65;;;13.10;99.90;;;;;;4209716;28;20135;-69
2022/06/08 02:51:41;;;;;;;6.07;1.65;;;13.10;99.90;;;;;;4203820;28;20053;-71
2022/06/08 02:53:55;;;;;;;4.20;1.73;;;13.10;99.90;;;;;;4209996;28;20088;-70
2022/06/08 02:56:14;;;;;;;2.80;1.55;;;13.10;99.90;;;;;;4204564;28;20061;-70
2022/06/08 02:58:28;;;;;;;2.08;1.80;;;13.10;99.90;;;;;;4208499;28;20119;-70
2022/06/08 03:00:57;;;;;;;5.95;1.67;;;13.10;99.90;;;;;;4203261;28;20056;-69
2022/06/08 03:03:08;;;;;;;2.78;1.13;;;13.10;99.90;;;;;;4201305;28;20247;-70
2022/06/08 03:05:25;;;;;;;2.88;1.13;;;13.10;99.90;;;;;;4201147;28;20068;-71
2022/06/08 03:07:31;;;;;;;2.10;1.90;;;13.10;99.90;;;;;;4205858;28;20873;-71
2022/06/08 03:09:35;;;;;;;3.45;1.23;;;13.20;99.90;;;;;;4206026;28;20856;-71
2022/06/08 03:11:41;;;;;;;5.07;1.38;;;13.20;99.90;;;;;;4202506;28;20057;-70
2022/06/08 03:14:05;;;;;;;1.95;1.25;;;13.20;99.90;;;;;;4198587;28;20195;-70
2022/06/08 03:16:23;;;;;;;4.30;1.48;;;13.10;99.90;;;;;;4201230;28;20631;-70
2022/06/08 03:18:25;;;;;;;2.10;1.52;;;13.10;99.90;;;;;;4204242;28;20842;-70
2022/06/08 03:20:27;;;;;;;2.53;1.52;;;13.10;99.90;;;;;;4205750;28;20909;-70
2022/06/08 03:22:29;;;;;;;3.05;1.30;;;13.20;99.90;;;;;;4199569;28;20173;-70
2022/06/08 03:24:31;;;;;;;3.08;1.40;;;13.10;99.90;;;;;;4201005;28;20056;-70
2022/06/08 03:26:38;;;;;;;3.38;0.90;;;13.10;99.90;;;;;;4200258;28;20173;-70
2022/06/08 03:28:40;;;;;;;3.17;1.10;;;13.10;99.90;;;;;;4202948;28;20053;-70
2022/06/08 03:30:43;;;;;;;1.85;1.10;;;13.10;99.90;;;;;;4199288;28;20151;-70
2022/06/08 03:32:45;;;;;;;3.97;1.35;;;13.10;99.90;;;;;;4201514;28;20095;-70
2022/06/08 03:34:47;;;;;;;1.05;0.95;;;13.10;99.90;;;;;;4200335;28;20052;-70
2022/06/08 03:36:49;;;;;;;5.03;1.67;;;13.10;99.90;;;;;;4200409;28;20060;-70
2022/06/08 03:38:51;;;;;;;3.20;1.52;;;13.00;99.90;;;;;;4200424;28;20065;-70
2022/06/08 03:41:00;;;;;;;1.52;1.20;;;13.00;99.90;;;;;;4205308;28;20092;-71
2022/06/08 03:43:02;;;;;;;1.88;1.40;;;13.00;99.90;;;;;;4201245;28;20783;-70
2022/06/08 03:45:04;;;;;;;6.13;1.55;;;13.00;99.90;;;;;;4202304;28;20091;-70
2022/06/08 03:47:12;;;;;;;3.05;1.20;;;13.00;99.90;;;;;;4201248;28;20056;-70
2022/06/08 03:49:14;;;;;;;5.57;1.00;;;13.10;99.90;;;;;;4202610;28;20071;-70
2022/06/08 03:51:17;;;;;;;2.83;1.70;;;13.10;99.90;;;;;;4202200;28;20087;-70
2022/06/08 03:53:22;;;;;;;3.20;1.60;;;13.20;99.90;;;;;;4203186;28;20052;-70
2022/06/08 03:55:28;;;;;;;2.95;1.45;;;13.20;99.90;;;;;;4202516;28;20108;-70
2022/06/08 03:57:31;;;;;;;6.38;1.80;;;13.30;99.90;;;;;;4199627;28;20872;-70
2022/06/08 03:59:35;;;;;;;3.72;1.20;;;13.30;99.90;;;;;;4198383;28;20176;-70
2022/06/08 04:01:37;;;;;;;2.05;1.10;;;13.40;99.90;;;;;;4202424;28;20057;-71
2022/06/08 04:03:39;;;;;;;2.78;1.40;;;13.40;99.90;;;;;;4201471;28;20053;-70
2022/06/08 04:05:41;;;;;;;6.47;2.13;;;13.50;99.90;;;;;;4200030;28;20104;-70
2022/06/08 04:07:43;;;;;;;3.53;1.20;;;13.50;99.90;;;;;;4202242;28;20771;-71
2022/06/08 04:09:45;;;;;;;4.93;1.42;;;13.50;99.90;;;;;;4203916;28;20067;-71
2022/06/08 04:11:46;;;;;;;1.50;1.38;;;13.60;99.90;;;;;;4204247;28;20104;-70
2022/06/08 04:13:48;;;;;;;2.17;1.30;;;13.60;99.90;;;;;;4206734;28;20143;-71
2022/06/08 04:15:51;;;;;;;1.35;0.88;;;13.60;99.90;;;;;;4203742;28;20208;-70
2022/06/08 04:17:53;;;;;;;3.95;1.40;;;13.60;99.90;;;;;;4198266;28;20095;-70
2022/06/08 04:19:54;;;;;;;2.58;1.05;;;13.60;99.90;;;;;;4199797;28;20155;-70
2022/06/08 04:21:56;;;;;;;2.05;1.48;;;13.50;99.90;;;;;;4199611;28;20627;-72
2022/06/08 04:24:00;;;;;;;3.45;1.48;;;13.60;99.90;;;;;;4203595;28;20148;-70
2022/06/08 04:26:03;;;;;;;1.90;1.23;;;13.60;99.90;;;;;;4200120;28;20057;-70
2022/06/08 04:28:06;;;;;;;3.58;1.20;;;13.60;99.90;;;;;;4205691;28;20095;-71
2022/06/08 04:30:08;;;;;;;1.92;0.95;;;13.60;99.90;;;;;;4203638;28;20053;-71
2022/06/08 04:32:10;;;;;;;1.55;1.27;;;13.60;99.90;;;;;;4202785;28;20064;-71
2022/06/08 04:34:13;;;;;;;1.98;1.20;;;13.60;99.90;;;;;;4198692;28;20057;-71
2022/06/08 04:36:15;;;;;;;1.20;0.93;;;13.50;99.90;;;;;;4206030;28;20915;-71
2022/06/08 04:38:17;;;;;;;4.78;1.23;;;13.50;99.90;;;;;;4212325;28;20052;-71
2022/06/08 04:40:20;;;;;;;3.70;1.10;;;13.50;99.90;;;;;;4201308;28;20056;-71
2022/06/08 04:42:22;;;;;;;1.65;1.02;;;13.50;99.90;;;;;;4205662;28;20096;-71
2022/06/08 04:44:24;;;;;;;5.93;1.50;;;13.50;99.90;;;;;;4202457;28;20109;-71
2022/06/08 04:46:26;;;;;;;1.58;1.25;;;13.40;99.90;;;;;;4202545;28;20171;-71
2022/06/08 04:48:28;;;;;;;3.90;1.30;;;13.40;99.90;;;;;;4198408;28;20478;-71
2022/06/08 04:50:31;;;;;;;1.33;0.90;;;13.40;99.90;;;;;;4201606;28;20056;-71
2022/06/08 04:52:33;;;;;;;4.28;1.95;;;13.40;99.90;;;;;;4204724;28;20056;-71
2022/06/08 04:54:35;;;;;;;7.25;1.70;;;13.40;99.90;;;;;;4202495;28;20788;-71
2022/06/08 04:56:42;;;;;;;3.13;1.10;;;13.40;99.90;;;;;;4200711;28;20063;-71
2022/06/08 04:58:44;;;;;;;2.55;1.30;;;13.40;99.90;;;;;;4199139;28;20178;-71
2022/06/08 05:00:46;;;;;;;1.55;1.20;;;13.40;99.90;;;;;;4199002;28;20057;-71
2022/06/08 05:02:49;;;;;;;4.13;1.20;;;13.50;99.90;;;;;;4202573;28;20155;-71
2022/06/08 05:04:51;;;;;;;4.15;1.50;;;13.50;99.90;;;;;;4207598;28;20052;-70
2022/06/08 05:06:53;;;;;;;3.47;1.30;;;13.60;99.90;;;;;;4204171;28;20061;-71
2022/06/08 05:08:54;;;;;;;2.17;1.25;;;13.60;99.90;;;;;;4204734;28;20061;-71
2022/06/08 05:10:57;;;;;;;2.53;1.30;;;13.80;99.90;;;;;;4203070;28;20858;-70
2022/06/08 05:12:59;;;;;;;1.40;1.25;;;13.90;99.90;;;;;;4200951;28;20061;-71
2022/06/08 05:15:02;;;;;;;3.28;1.50;;;14.00;99.90;;;;;;4202942;28;20095;-71
2022/06/08 05:17:04;;;;;;;2.30;1.27;;;14.00;99.90;;;;;;4197463;28;20913;-71
2022/06/08 05:19:05;;;;;;;1.10;0.90;;;14.10;99.90;;;;;;4205304;28;20815;-70
2022/06/08 05:21:07;;;;;;;2.33;1.00;;;14.10;99.90;;;;;;4200051;28;20668;-71
2022/06/08 05:23:14;;;;;;;2.80;1.30;;;14.10;99.90;;;;;;4207565;28;20266;-71
2022/06/08 05:25:24;;;;;;;4.97;1.38;;;14.10;99.90;;;;;;4200722;28;20061;-71
2022/06/08 05:27:25;;;;;;;4.93;1.15;;;14.20;99.90;;;;;;4201150;28;20834;-71
2022/06/08 05:29:27;;;;;;;3.13;1.33;;;14.10;99.90;;;;;;4199740;28;20059;-71
2022/06/08 05:31:29;;;;;;;1.95;1.10;;;14.20;99.90;;;;;;4203816;28;20171;-71
2022/06/08 05:33:31;;;;;;;4.97;1.55;;;14.20;99.90;;;;;;4202945;28;20061;-71
2022/06/08 05:35:33;;;;;;;0.90;0.80;;;14.20;99.90;;;;;;4202710;28;20783;-71
2022/06/08 05:37:35;;;;;;;6.05;1.80;;;14.30;99.90;;;;;;4208352;28;20057;-71
2022/06/08 05:39:37;;;;;;;3.60;1.30;;;14.40;99.90;;;;;;4206197;28;20111;-71
2022/06/08 05:41:39;;;;;;;1.95;1.17;;;14.40;99.90;;;;;;4204006;28;20068;-71
2022/06/08 05:43:40;;;;;;;2.08;0.98;;;14.50;99.90;;;;;;4201622;28;20163;-71
2022/06/08 05:45:42;;;;;;;4.40;0.93;;;14.50;99.90;;;;;;4204377;28;20056;-72
2022/06/08 05:47:45;;;;;;;5.22;1.10;;;14.50;99.90;;;;;;4197715;28;20057;-71
2022/06/08 05:49:50;;;;;;;13.13;1.25;;;14.60;99.90;;;;;;4197971;28;20056;-70
2022/06/08 05:51:53;;;;;;;2.83;1.25;;;14.60;99.90;;;;;;4208169;28;20161;-71
2022/06/08 05:53:54;;;;;;;2.13;1.02;;;14.70;99.90;;;;;;4203542;28;20138;-70
2022/06/08 05:55:56;;;;;;;3.30;1.00;;;14.70;99.90;;;;;;4200364;28;20106;-71
2022/06/08 05:57:58;;;;;;;3.90;0.90;;;14.70;99.90;;;;;;4205372;28;20045;-71
2022/06/08 05:59:59;;;;;;;6.78;1.17;;;14.80;99.90;;;;;;4200616;28;20754;-71
2022/06/08 06:02:01;;;;;;;2.97;1.50;;;14.90;99.90;;;;;;4198404;28;20057;-72
2022/06/08 06:04:07;;;;;;;5.32;1.23;;;14.90;99.90;;;;;;4201021;28;20884;-71
2022/06/08 06:06:09;;;;;;;8.50;1.13;;;14.90;99.90;;;;;;4204082;28;20056;-72
2022/06/08 06:08:12;;;;;;;3.95;1.08;;;15.00;99.90;;;;;;4203267;28;20123;-71
2022/06/08 06:10:15;;;;;;;1.65;1.05;;;15.10;99.90;;;;;;4205811;28;20067;-71
2022/06/08 06:12:17;;;;;;;5.75;1.55;;;15.10;99.90;;;;;;4209271;28;20057;-71
2022/06/08 06:14:19;;;;;;;4.93;1.25;;;15.20;99.90;;;;;;4202856;28;20057;-71
2022/06/08 06:16:21;;;;;;;3.42;1.20;;;15.20;99.90;;;;;;4197447;28;20071;-72
2022/06/08 06:18:23;;;;;;;2.35;1.00;;;15.30;99.90;;;;;;4204084;28;20097;-72
2022/06/08 06:20:24;;;;;;;3.72;1.17;;;15.30;99.90;;;;;;4201086;28;20115;-72
2022/06/08 06:22:26;;;;;;;1.13;0.70;;;15.40;99.90;;;;;;4205315;28;20081;-72
2022/06/08 06:24:28;;;;;;;3.75;0.95;;;15.40;99.90;;;;;;4199339;28;20178;-72
2022/06/08 06:26:31;;;;;;;4.07;1.50;;;15.50;99.90;;;;;;4205902;28;20064;-71
2022/06/08 06:28:32;;;;;;;5.55;0.98;;;15.60;99.90;;;;;;4202374;28;20091;-72
2022/06/08 06:30:34;;;;;;;3.35;1.05;;;15.60;99.90;;;;;;4202162;28;20095;-72
2022/06/08 06:32:37;;;;;;;7.53;1.25;;;15.60;99.90;;;;;;4205495;28;20048;-71
2022/06/08 06:34:39;;;;;;;5.05;1.10;;;15.70;99.90;;;;;;4210347;28;20075;-72
2022/06/08 06:36:41;;;;;;;3.42;1.00;;;15.70;99.90;;;;;;4203430;28;20079;-72
2022/06/08 06:38:43;;;;;;;3.75;1.35;;;15.70;99.90;;;;;;4202519;28;20071;-72
2022/06/08 06:40:45;;;;;;;3.35;0.73;;;15.70;99.90;;;;;;4207427;28;20888;-71
2022/06/08 06:42:48;;;;;;;1.90;0.95;;;15.80;99.90;;;;;;4202127;28;20103;-71
2022/06/08 06:44:53;;;;;;;3.72;1.20;;;15.80;99.90;;;;;;4203779;28;20168;-72
2022/06/08 06:46:56;;;;;;;1.45;0.77;;;15.80;99.90;;;;;;4206785;28;20080;-71
2022/06/08 06:48:58;;;;;;;14.05;1.60;;;15.80;99.90;;;;;;4201279;28;20140;-73
2022/06/08 06:50:59;;;;;;;2.92;1.00;;;15.80;99.90;;;;;;4199808;28;20060;-72
2022/06/08 06:53:01;;;;;;;2.55;0.93;;;15.80;99.70;;;;;;4203225;28;20056;-72
2022/06/08 06:55:17;;;;;;;3.05;0.90;;;15.90;99.80;;;;;;4203998;28;20110;-72
2022/06/08 06:57:19;;;;;;;2.17;0.95;;;15.90;99.30;;;;;;4213779;28;20056;-72
2022/06/08 06:59:21;;;;;;;5.55;1.30;;;16.00;98.90;;;;;;4201860;28;20053;-72
2022/06/08 07:01:23;;;;;;;4.93;0.93;;;16.00;98.90;;;;;;4200409;28;20176;-71
2022/06/08 07:03:26;;;;;;;1.98;0.80;;;16.00;99.00;;;;;;4199851;28;20068;-71
2022/06/08 07:05:34;;;;;;;4.80;0.80;;;16.10;99.40;;;;;;4201722;28;20143;-71
2022/06/08 07:07:35;;;;;;;6.38;1.40;;;16.10;98.40;;;;;;4200262;28;20096;-71
2022/06/08 07:09:37;;;;;;;2.60;1.27;;;16.10;99.50;;;;;;4199314;28;20132;-71
2022/06/08 07:11:40;;;;;;;3.97;1.20;;;16.20;99.40;;;;;;4200217;28;20057;-72
2022/06/08 07:13:42;;;;;;;4.57;1.00;;;16.20;99.30;;;;;;4198318;28;20128;-72
2022/06/08 07:15:43;;;;;;;3.50;1.08;;;16.30;99.10;;;;;;4196586;28;20173;-71
2022/06/08 07:17:45;;;;;;;4.28;1.55;;;16.40;98.60;;;;;;4196888;28;20061;-72
2022/06/08 07:19:47;;;;;;;1.98;0.93;;;16.50;98.70;;;;;;4203341;28;20151;-72
2022/06/08 07:21:49;;;;;;;2.60;1.13;;;16.60;98.90;;;;;;4200612;28;20053;-72
2022/06/08 07:23:52;;;;;;;2.00;0.95;;;16.70;99.00;;;;;;4197549;28;20095;-72
2022/06/08 07:25:53;;;;;;;2.42;1.02;;;16.80;98.00;;;;;;4202381;28;20057;-72
2022/06/08 07:27:55;;;;;;;5.35;1.13;;;16.80;97.30;;;;;;4198314;28;20060;-72
2022/06/08 07:29:57;;;;;;;5.95;1.00;;;16.80;96.40;;;;;;4197573;28;20112;-72
2022/06/08 07:32:04;;;;;;;3.38;0.88;;;16.80;96.50;;;;;;4198456;28;20057;-72
2022/06/08 07:34:06;;;;;;;2.78;0.88;;;17.00;96.80;;;;;;4199092;28;20090;-72
2022/06/08 07:36:08;;;;;;;5.60;1.10;;;17.20;95.90;;;;;;4201056;28;20760;-72
2022/06/08 07:38:10;;;;;;;3.90;1.05;;;17.10;95.70;;;;;;4195120;28;20049;-72
2022/06/08 07:40:12;;;;;;;5.32;1.00;;;17.10;95.30;;;;;;4202055;28;20065;-72
2022/06/08 07:42:14;;;;;;;3.95;0.70;;;17.10;95.40;;;;;;4194240;28;21084;-71
2022/06/08 07:44:18;;;;;;;10.98;1.38;;;17.00;95.70;;;;;;4194534;28;20063;-72
2022/06/08 07:46:19;;;;;;;3.10;1.15;;;17.00;96.10;;;;;;4198841;28;20101;-72
2022/06/08 07:50:42;;;;;;;2.58;0.82;;;17.20;96.20;;;;;;4201025;28;20108;-73
2022/06/08 07:52:44;;;;;;;3.50;0.80;;;17.10;95.50;;;;;;4200048;28;20170;-74
2022/06/08 07:54:46;;;;;;;2.67;0.93;;;17.00;94.90;;;;;;4202931;28;20076;-72
2022/06/08 07:56:49;;;;;;;2.95;0.93;;;17.00;95.60;;;;;;4206178;28;20061;-72
2022/06/08 07:58:51;;;;;;;0.77;0.70;;;17.00;95.10;;;;;;4196745;28;20135;-73
2022/06/08 08:00:53;;;;;;;2.80;0.80;;;17.00;95.50;;;;;;4199327;28;20274;-72
2022/06/08 08:02:55;;;;;;;3.67;1.13;;;17.10;95.10;;;;;;4200896;28;20147;-73
2022/06/08 08:04:57;;;;;;;3.97;1.13;;;17.20;95.60;;;;;;4198873;28;20137;-73
2022/06/08 08:06:59;;;;;;;3.33;1.10;;;17.30;95.70;;;;;;4197502;28;20060;-73
2022/06/08 08:09:04;;;;;;;5.32;1.15;;;17.50;94.10;;;;;;4195418;28;20163;-73
2022/06/08 08:11:06;;;;;;;1.38;0.80;;;17.70;93.60;;;;;;4195099;28;20057;-73
2022/06/08 08:13:10;;;;;;;2.10;1.15;;;17.90;93.60;;;;;;4197284;28;20063;-72
2022/06/08 08:15:13;;;;;;;8.38;1.10;;;17.90;93.00;;;;;;4229577;22;20121;-74
2022/06/08 08:17:14;;;;;;;2.90;1.00;;;18.00;92.30;;;;;;4198696;28;20088;-74
2022/06/08 08:19:23;;;;;;;2.58;1.05;;;18.20;91.80;;;;;;4196820;28;20064;-74
2022/06/08 08:21:25;;;;;;;4.60;0.80;;;18.20;92.00;;;;;;4195780;28;20700;-74
2022/06/08 08:23:27;;;;;;;1.80;0.80;;;18.20;91.60;;;;;;4197581;28;20053;-75
2022/06/08 08:25:29;;;;;;;2.70;1.23;;;18.30;90.70;;;;;;4196808;28;20056;-74
2022/06/08 08:27:31;;;;;;;2.92;1.05;;;18.40;91.70;;;;;;4195857;28;20167;-74
2022/06/08 08:29:33;;;;;;;1.33;0.70;;;18.40;90.70;;;;;;4196154;28;20875;-74
2022/06/08 08:31:35;;;;;;;4.05;1.60;;;18.30;90.90;;;;;;4194015;28;20162;-74
2022/06/08 08:33:37;;;;;;;3.63;1.23;;;18.30;91.40;;;;;;4196475;28;20053;-75
2022/06/08 08:35:38;;;;;;;1.55;0.70;;;18.40;91.80;;;;;;4194097;28;20061;-74
2022/06/08 08:37:40;;;;;;;2.67;0.70;;;18.50;92.30;;;;;;4196860;28;20053;-74
2022/06/08 08:39:42;;;;;;;4.22;0.95;;;18.60;90.80;;;;;;4196474;28;20057;-74
2022/06/08 08:44:05;;;;;;;2.70;0.80;;;18.70;90.00;;;;;;4195013;28;20063;-75
2022/06/08 08:46:25;;;;;;;4.75;1.20;;;18.70;90.00;;;;;;4196138;28;20414;-74
2022/06/08 08:48:34;;;;;;;2.53;0.70;;;18.70;90.30;;;;;;4196600;28;20870;-74
2022/06/08 08:50:49;;;;;;;1.67;0.73;;;18.70;90.00;;;;;;4193730;28;20084;-75
2022/06/08 08:53:09;;;;;;;9.65;1.17;;;18.80;87.20;;;;;;4195835;28;20060;-75
2022/06/08 08:55:38;;;;;;;2.53;0.75;;;18.90;88.00;;;;;;4193178;28;20835;-75
2022/06/08 08:57:56;;;;;;;2.47;0.52;;;18.90;86.40;;;;;;4195746;28;20061;-74
2022/06/08 08:59:58;;;;;;;3.92;1.42;;;18.90;84.00;;;;;;4192632;28;20104;-74
2022/06/08 09:01:59;;;;;;;1.85;0.77;;;19.00;81.80;;;;;;4195861;28;20057;-74
2022/06/08 09:04:52;;;;;;;1.45;0.70;;;19.10;79.40;;;;;;4196553;28;20079;-73
2022/06/08 09:06:54;;;;;;;4.00;0.80;;;19.30;81.50;;;;;;4162998;28;20061;-73
2022/06/08 09:09:00;;;;;;;1.33;0.50;;;19.20;80.50;;;;;;4179725;28;20119;-73
2022/06/08 09:11:03;;;;;;;4.30;0.70;;;19.00;79.90;;;;;;4193683;28;20179;-73
2022/06/08 09:13:05;;;;;;;2.10;0.55;;;18.90;78.70;;;;;;4198019;28;20053;-73
2022/06/08 09:15:07;;;;;;;2.88;0.77;;;18.90;80.70;;;;;;4195267;28;20207;-72
2022/06/08 09:17:18;;;;;;;1.48;0.65;;;18.80;80.50;;;;;;4196156;28;20057;-73
2022/06/08 09:19:29;;;;;;;2.88;0.80;;;18.80;82.30;;;;;;4195853;28;20064;-73
2022/06/08 09:21:34;;;;;;;5.55;1.00;;;18.90;81.10;;;;;;4197359;28;20156;-72
2022/06/08 09:23:41;;;;;;;2.38;0.82;;;19.10;78.70;;;;;;4195317;28;20057;-72
2022/06/08 09:25:42;;;;;;;1.52;0.73;;;19.30;76.10;;;;;;4195068;28;20095;-74
2022/06/08 09:27:50;;;;;;;10.13;0.73;;;19.40;75.40;;;;;;4189923;28;20827;-74
2022/06/08 09:30:09;;;;;;;4.57;1.27;;;19.60;76.00;;;;;;4195176;28;20154;-73
2022/06/08 09:32:29;;;;;;;2.20;0.90;;;19.80;76.10;;;;;;4193840;28;20067;-74
2022/06/08 09:34:34;;;;;;;2.17;0.77;;;19.80;74.90;;;;;;4190187;28;20057;-73
2022/06/08 09:36:36;;;;;;;9.00;1.25;;;19.90;74.60;;;;;;4192140;28;20854;-74
2022/06/08 09:38:42;;;;;;;4.80;0.75;;;20.00;72.80;;;;;;4194628;28;20052;-71
2022/06/08 09:40:56;;;;;;;0.73;0.38;;;20.10;71.50;;;;;;4193122;28;20061;-74
2022/06/08 09:43:18;;;;;;;4.97;0.90;;;20.10;73.00;;;;;;4193440;28;20060;-74
2022/06/08 09:45:48;;;;;;;3.05;0.50;;;20.10;75.10;;;;;;4196796;28;20166;-74
2022/06/08 09:53:32;;;;;;;1.55;0.57;;;20.30;70.20;;;;;;4198255;28;20079;-73
2022/06/08 09:55:53;;;;;;;1.40;0.93;;;20.50;71.40;;;;;;4198121;28;20068;-73
2022/06/08 09:58:05;;;;;;;2.75;0.50;;;20.70;67.70;;;;;;4196098;28;20061;-73
2022/06/08 10:00:10;;;;;;;5.15;1.23;;;20.60;70.80;;;;;;4197930;28;20063;-73
2022/06/08 10:02:32;;;;;;;1.52;0.60;;;20.60;70.40;;;;;;4197520;28;20068;-73
2022/06/08 10:05:01;;;;;;;3.60;0.60;;;20.70;70.80;;;;;;4197989;28;20067;-73
2022/06/08 10:07:20;;;;;;;2.88;0.50;;;20.80;67.30;;;;;;4199601;28;20169;-72
2022/06/08 10:10:10;;;;;;;2.30;0.85;;;20.90;68.50;;;;;;4196814;28;20063;-73
2022/06/08 10:12:26;;;;;;;1.80;0.90;;;20.80;69.00;;;;;;4159401;28;20079;-72
2022/06/08 10:14:42;;;;;;;2.28;0.57;;;20.80;69.20;;;;;;4199596;28;20065;-73
2022/06/08 10:16:58;;;;;;;3.45;0.60;;;20.80;68.40;;;;;;4199636;28;20061;-72
2022/06/08 10:19:07;;;;;;;2.72;0.98;;;20.90;67.50;;;;;;4198678;28;20148;-73
2022/06/08 10:21:17;;;;;;;1.85;0.70;;;20.90;65.50;;;;;;4199301;28;20053;-73
2022/06/08 10:23:36;;;;;;;1.50;0.70;;;21.10;65.60;;;;;;4208694;28;20060;-73
2022/06/08 10:25:46;;;;;;;1.05;0.65;;;21.30;66.60;;;;;;4212999;28;20454;-72
2022/06/08 10:28:02;;;;;;;2.42;0.55;;;21.50;65.10;;;;;;4189585;28;20057;-72
2022/06/08 10:30:13;;;;;;;3.58;0.77;;;21.50;64.30;;;;;;4202278;28;20151;-72
2022/06/08 10:32:29;;;;;;;2.20;0.80;;;21.60;65.00;;;;;;4213347;28;20064;-72
2022/06/08 10:34:33;;;;;;;4.10;0.98;;;21.70;64.70;;;;;;4212283;28;20057;-72
2022/06/08 10:36:36;;;;;;;2.53;0.80;;;21.70;62.70;;;;;;4209219;28;20130;-72
2022/06/08 10:38:44;;;;;;;1.30;0.77;;;21.50;62.70;;;;;;4189596;28;20045;-72
2022/06/08 10:43:37;;;;;;;2.75;0.70;;;21.50;60.70;;;;;;4208500;28;20048;-72
2022/06/08 10:45:52;;;;;;;2.88;0.77;;;21.70;62.10;;;;;;4205034;28;20056;-71
2022/06/08 10:48:03;;;;;;;3.70;0.43;;;21.80;62.30;;;;;;4207627;28;20876;-71
2022/06/08 10:50:05;;;;;;;1.33;0.30;;;21.90;58.10;;;;;;4206071;28;20060;-72
2022/06/08 10:52:46;;;;;;;2.28;0.75;;;22.10;59.40;;;;;;4205186;28;20080;-70
2022/06/08 10:54:56;;;;;;;2.15;0.45;;;22.30;54.80;;;;;;4199608;28;21132;-71
2022/06/08 10:56:58;;;;;;;0.77;0.33;;;22.30;54.00;;;;;;4205061;28;20086;-70
2022/06/08 10:59:03;;;;;;;1.13;0.30;;;22.20;53.80;;;;;;4206409;28;20432;-71
2022/06/08 11:01:33;;;;;;;0.50;0.40;;;22.20;53.60;;;;;;4209048;28;20091;-73
2022/06/08 11:03:41;;;;;;;1.17;0.32;;;22.10;54.50;;;;;;4203488;28;20154;-71
2022/06/08 11:05:47;;;;;;;0.70;0.40;;;22.00;57.10;;;;;;4199070;28;20087;-71
2022/06/08 11:08:01;;;;;;;1.25;0.43;;;21.90;56.80;;;;;;4209448;28;20140;-71
2022/06/08 11:10:05;;;;;;;3.03;0.68;;;22.00;57.10;;;;;;4204363;28;20049;-71
2022/06/08 11:12:11;;;;;;;1.60;0.30;;;22.20;56.20;;;;;;4210919;28;20063;-71
2022/06/08 11:14:51;;;;;;;2.78;0.43;;;22.40;56.10;;;;;;4207359;28;20845;-71
2022/06/08 11:16:57;;;;;;;1.45;0.60;;;22.50;56.80;;;;;;4205785;28;20625;-71